createdAt,value
2018-12-29T00:05:12.787Z,2.72
2018-12-29T00:07:41.180Z,2.53
2018-12-29T00:10:09.563Z,2.37
2018-12-29T00:12:37.954Z,2.70
2018-12-29T00:15:06.319Z,2.50
2018-12-29T00:20:36.158Z,2.55
2018-12-29T00:23:04.548Z,2.56
2018-12-29T00:25:32.925Z,2.46
2018-12-29T00:28:01.321Z,2.51
2018-12-29T00:30:29.688Z,2.62
2018-12-29T00:32:58.080Z,2.68
2018-12-29T00:35:26.446Z,2.84
2018-12-29T00:37:54.821Z,2.58
2018-12-29T00:40:23.529Z,2.57
2018-12-29T00:42:51.907Z,2.79
2018-12-29T00:45:20.299Z,2.69
2018-12-29T00:48:08.019Z,2.78
2018-12-29T00:50:36.472Z,2.57
2018-12-29T00:53:04.860Z,2.77
2018-12-29T00:55:33.559Z,2.48
2018-12-29T00:58:01.992Z,2.50
2018-12-29T01:00:30.360Z,2.56
2018-12-29T01:02:58.745Z,2.58
2018-12-29T01:05:27.121Z,2.56
2018-12-29T01:07:55.502Z,2.72
2018-12-29T01:10:23.878Z,2.39
2018-12-29T01:12:52.267Z,2.57
2018-12-29T01:15:20.647Z,2.74
2018-12-29T01:17:49.035Z,2.64
2018-12-29T01:20:17.404Z,2.78
2018-12-29T01:22:45.793Z,2.59
2018-12-29T01:25:14.169Z,2.69
2018-12-29T01:27:42.554Z,2.67
2018-12-29T01:30:10.932Z,2.57
2018-12-29T01:32:39.341Z,2.49
2018-12-29T01:35:07.710Z,2.56
2018-12-29T01:37:36.079Z,2.66
2018-12-29T01:42:59.588Z,2.77
2018-12-29T01:45:27.974Z,2.85
2018-12-29T01:47:56.353Z,2.66
2018-12-29T01:50:24.737Z,2.70
2018-12-29T01:52:53.119Z,2.65
2018-12-29T01:55:21.525Z,2.73
2018-12-29T01:57:49.904Z,2.38
2018-12-29T02:00:18.275Z,2.58
2018-12-29T02:02:46.657Z,2.39
2018-12-29T02:05:15.408Z,2.52
2018-12-29T02:07:43.804Z,2.38
2018-12-29T02:10:12.188Z,2.29
2018-12-29T02:12:40.576Z,2.32
2018-12-29T02:15:08.956Z,2.46
2018-12-29T02:17:37.325Z,2.39
2018-12-29T02:20:45.629Z,2.46
2018-12-29T02:23:14.015Z,2.54
2018-12-29T02:25:42.402Z,2.53
2018-12-29T02:28:10.794Z,2.52
2018-12-29T02:30:39.439Z,2.49
2018-12-29T02:33:07.817Z,2.49
2018-12-29T02:35:36.210Z,2.47
2018-12-29T02:38:23.928Z,2.61
2018-12-29T02:40:52.309Z,2.68
2018-12-29T02:43:20.687Z,2.73
2018-12-29T02:45:49.084Z,2.79
2018-12-29T02:48:37.102Z,2.68
2018-12-29T02:51:05.501Z,2.79
2018-12-29T02:53:33.916Z,2.91
2018-12-29T02:56:14.692Z,3.13
2018-12-29T02:58:43.068Z,3.20
2018-12-29T03:01:11.447Z,2.97
2018-12-29T03:03:39.831Z,2.97
2018-12-29T03:06:08.223Z,3.10
2018-12-29T03:08:55.937Z,2.82
2018-12-29T03:11:24.315Z,3.05
2018-12-29T03:13:52.728Z,2.85
2018-12-29T03:16:21.102Z,2.97
2018-12-29T03:19:08.817Z,3.06
2018-12-29T03:21:37.188Z,2.90
2018-12-29T03:24:05.698Z,2.90
2018-12-29T03:26:34.082Z,3.02
2018-12-29T03:29:02.453Z,2.96
2018-12-29T03:31:30.865Z,2.93
2018-12-29T03:33:59.219Z,3.05
2018-12-29T03:36:27.836Z,3.05
2018-12-29T03:39:15.555Z,3.18
2018-12-29T03:41:44.230Z,2.94
2018-12-29T03:44:12.605Z,2.93
2018-12-29T03:46:41.031Z,2.86
2018-12-29T03:49:09.395Z,2.87
2018-12-29T03:51:38.273Z,2.67
2018-12-29T03:54:06.656Z,2.63
2018-12-29T03:56:35.043Z,2.58
2018-12-29T03:59:03.489Z,2.50
2018-12-29T04:01:31.800Z,2.75
2018-12-29T04:04:00.179Z,2.67
2018-12-29T04:06:28.845Z,2.49
2018-12-29T04:09:34.343Z,2.67
2018-12-29T04:12:11.501Z,2.61
2018-12-29T04:14:39.972Z,2.48
2018-12-29T04:17:08.356Z,2.51
2018-12-29T04:19:36.734Z,2.50
2018-12-29T04:22:05.182Z,2.52
2018-12-29T04:24:33.578Z,2.41
2018-12-29T04:27:02.264Z,2.65
2018-12-29T04:29:32.561Z,2.45
2018-12-29T04:32:00.944Z,2.45
2018-12-29T04:34:29.333Z,2.52
2018-12-29T04:36:57.719Z,2.55
2018-12-29T04:39:26.098Z,2.31
2018-12-29T04:41:54.505Z,2.44
2018-12-29T04:44:23.172Z,2.44
2018-12-29T04:46:51.563Z,2.25
2018-12-29T04:49:19.942Z,2.25
2018-12-29T04:51:48.324Z,2.24
2018-12-29T04:54:16.698Z,2.38
2018-12-29T04:56:45.093Z,2.54
2018-12-29T04:59:13.460Z,2.57
2018-12-29T05:01:41.849Z,2.47
2018-12-29T05:04:10.229Z,2.55
2018-12-29T05:06:38.632Z,2.48
2018-12-29T05:09:07.281Z,2.74
2018-12-29T05:11:35.659Z,2.50
2018-12-29T05:14:04.033Z,2.40
2018-12-29T05:16:32.411Z,2.39
2018-12-29T05:19:00.795Z,2.35
2018-12-29T05:21:29.166Z,2.53
2018-12-29T05:23:57.834Z,2.53
2018-12-29T05:26:26.236Z,2.41
2018-12-29T05:28:54.631Z,2.67
2018-12-29T05:31:23.011Z,2.63
2018-12-29T05:33:51.403Z,2.46
2018-12-29T05:36:19.773Z,2.65
2018-12-29T05:38:48.167Z,2.50
2018-12-29T05:41:16.546Z,2.57
2018-12-29T05:43:44.926Z,2.50
2018-12-29T05:46:20.118Z,2.57
2018-12-29T05:48:43.412Z,2.52
2018-12-29T05:51:11.790Z,2.55
2018-12-29T05:53:40.230Z,2.53
2018-12-29T05:56:08.607Z,2.56
2018-12-29T05:58:54.277Z,2.47
2018-12-29T06:01:22.665Z,2.59
2018-12-29T06:03:51.042Z,2.53
2018-12-29T06:06:19.434Z,2.46
2018-12-29T06:08:47.811Z,2.51
2018-12-29T06:11:16.202Z,2.55
2018-12-29T06:13:44.577Z,2.61
2018-12-29T06:16:12.973Z,2.64
2018-12-29T06:18:41.347Z,2.77
2018-12-29T06:21:09.813Z,2.80
2018-12-29T06:23:38.200Z,2.74
2018-12-29T06:26:06.577Z,2.90
2018-12-29T06:28:34.967Z,2.89
2018-12-29T06:31:03.347Z,2.74
2018-12-29T06:33:31.732Z,2.77
2018-12-29T06:36:00.105Z,2.59
2018-12-29T06:38:28.495Z,2.56
2018-12-29T06:40:56.874Z,2.72
2018-12-29T06:43:25.254Z,2.86
2018-12-29T06:45:53.633Z,2.86
2018-12-29T06:48:22.020Z,2.69
2018-12-29T06:50:50.395Z,2.89
2018-12-29T06:53:18.776Z,2.89
2018-12-29T06:55:47.167Z,2.80
2018-12-29T06:58:15.802Z,2.97
2018-12-29T07:00:44.214Z,2.94
2018-12-29T07:03:12.590Z,2.85
2018-12-29T07:05:40.979Z,2.75
2018-12-29T07:08:09.371Z,2.69
2018-12-29T07:10:37.723Z,2.79
2018-12-29T07:13:06.104Z,2.71
2018-12-29T07:15:34.502Z,2.62
2018-12-29T07:18:12.742Z,2.54
2018-12-29T07:20:41.118Z,2.56
2018-12-29T07:23:09.512Z,2.45
2018-12-29T07:25:37.909Z,2.61
2018-12-29T07:28:06.270Z,2.73
2018-12-29T07:30:35.646Z,2.56
2018-12-29T07:33:04.044Z,2.66
2018-12-29T07:35:36.420Z,2.81
2018-12-29T07:38:05.717Z,2.88
2018-12-29T07:40:34.548Z,2.91
2018-12-29T07:43:05.607Z,2.88
2018-12-29T07:45:34.037Z,2.90
2018-12-29T07:48:02.441Z,2.94
2018-12-29T07:50:30.826Z,2.86
2018-12-29T07:53:14.225Z,2.77
2018-12-29T07:55:42.604Z,2.70
2018-12-29T07:58:10.995Z,2.76
2018-12-29T08:00:39.381Z,2.62
2018-12-29T08:03:07.750Z,2.65
2018-12-29T08:05:36.171Z,2.63
2018-12-29T08:08:04.554Z,2.76
2018-12-29T08:10:34.900Z,2.66
2018-12-29T08:13:05.220Z,2.68
2018-12-29T08:15:33.608Z,2.66
2018-12-29T08:18:01.992Z,2.54
2018-12-29T08:20:30.377Z,2.65
2018-12-29T08:22:58.754Z,2.73
2018-12-29T08:25:34.044Z,2.65
2018-12-29T08:28:02.420Z,2.77
2018-12-29T08:30:30.813Z,2.96
2018-12-29T08:32:59.194Z,2.92
2018-12-29T08:35:27.568Z,2.91
2018-12-29T08:37:56.028Z,2.89
2018-12-29T08:40:24.371Z,2.95
2018-12-29T08:42:52.758Z,2.94
2018-12-29T08:45:21.138Z,3.06
2018-12-29T08:47:49.519Z,2.98
2018-12-29T08:50:18.157Z,3.01
2018-12-29T08:52:46.562Z,3.10
2018-12-29T08:55:14.942Z,3.15
2018-12-29T08:57:44.329Z,3.34
2018-12-29T09:00:12.705Z,3.13
2018-12-29T09:02:41.098Z,3.10
2018-12-29T09:05:09.474Z,3.15
2018-12-29T09:07:37.866Z,3.03
2018-12-29T09:10:06.379Z,3.22
2018-12-29T09:12:36.698Z,3.19
2018-12-29T09:15:05.484Z,3.12
2018-12-29T09:17:33.927Z,3.08
2018-12-29T09:20:02.299Z,3.01
2018-12-29T09:22:30.712Z,3.06
2018-12-29T09:25:05.738Z,3.06
2018-12-29T09:27:34.650Z,3.03
2018-12-29T09:30:03.162Z,3.01
2018-12-29T09:32:31.513Z,3.13
2018-12-29T09:35:01.901Z,3.11
2018-12-29T09:37:30.276Z,3.22
2018-12-29T09:39:58.690Z,3.18
2018-12-29T09:42:27.069Z,3.25
2018-12-29T09:44:55.538Z,6.06
2018-12-29T09:47:30.202Z,6.96
2018-12-29T09:49:58.772Z,5.45
2018-12-29T09:52:27.586Z,7.53
2018-12-29T09:54:58.091Z,5.85
2018-12-29T09:57:26.646Z,6.64
2018-12-29T09:59:56.071Z,5.38
2018-12-29T10:02:24.605Z,6.04
2018-12-29T10:04:53.171Z,5.89
2018-12-29T10:07:21.821Z,5.28
2018-12-29T10:09:51.345Z,5.84
2018-12-29T10:12:19.741Z,7.76
2018-12-29T10:14:48.524Z,7.22
2018-12-29T10:17:17.203Z,6.29
2018-12-29T10:19:46.942Z,6.07
2018-12-29T10:22:15.805Z,6.57
2018-12-29T10:24:44.566Z,7.26
2018-12-29T10:27:13.240Z,5.89
2018-12-29T10:29:41.941Z,5.72
2018-12-29T10:32:11.662Z,5.89
2018-12-29T10:34:40.447Z,6.49
2018-12-29T10:37:10.276Z,5.48
2018-12-29T10:39:39.140Z,5.79
2018-12-29T10:42:07.898Z,6.53
2018-12-29T10:44:36.705Z,6.38
2018-12-29T10:47:05.362Z,6.25
2018-12-29T10:49:33.900Z,7.48
2018-12-29T10:52:02.612Z,7.14
2018-12-29T10:54:30.999Z,6.83
2018-12-29T10:57:18.722Z,6.56
2018-12-29T10:59:47.106Z,6.62
2018-12-29T11:02:15.485Z,6.25
2018-12-29T11:04:43.872Z,6.70
2018-12-29T11:07:12.253Z,6.98
2018-12-29T11:09:40.640Z,6.57
2018-12-29T11:12:28.364Z,6.09
2018-12-29T11:14:56.749Z,6.73
2018-12-29T11:17:25.121Z,6.09
2018-12-29T11:19:53.613Z,6.17
2018-12-29T11:22:41.328Z,7.60
2018-12-29T11:25:09.744Z,8.53
2018-12-29T11:27:38.126Z,7.71
2018-12-29T11:30:06.802Z,7.18
2018-12-29T11:32:35.201Z,8.42
2018-12-29T11:35:03.653Z,9.57
2018-12-29T11:37:32.028Z,8.32
2018-12-29T11:40:00.402Z,9.17
2018-12-29T11:42:28.785Z,9.17
2018-12-29T11:44:57.159Z,8.06
2018-12-29T11:47:25.541Z,6.99
2018-12-29T11:49:54.047Z,7.84
2018-12-29T11:52:43.442Z,8.66
2018-12-29T11:55:11.833Z,6.61
2018-12-29T11:57:40.238Z,5.77
2018-12-29T12:00:27.951Z,5.72
2018-12-29T12:03:15.671Z,5.11
2018-12-29T12:05:44.056Z,5.10
2018-12-29T12:08:12.447Z,5.23
2018-12-29T12:10:40.843Z,5.24
2018-12-29T12:13:09.223Z,5.09
2018-12-29T12:15:37.589Z,5.27
2018-12-29T12:18:05.978Z,5.27
2018-12-29T12:20:34.374Z,5.32
2018-12-29T12:23:02.748Z,5.38
2018-12-29T12:25:31.128Z,5.40
2018-12-29T12:27:59.771Z,5.49
2018-12-29T12:30:28.162Z,5.64
2018-12-29T12:32:56.532Z,5.41
2018-12-29T12:35:24.918Z,5.46
2018-12-29T12:37:53.368Z,5.47
2018-12-29T12:40:21.790Z,5.44
2018-12-29T12:42:50.462Z,5.68
2018-12-29T12:45:18.848Z,5.65
2018-12-29T12:47:47.305Z,5.60
2018-12-29T12:50:15.695Z,5.55
2018-12-29T12:53:03.401Z,5.65
2018-12-29T12:55:32.058Z,5.86
2018-12-29T12:58:02.156Z,5.88
2018-12-29T13:00:32.266Z,5.66
2018-12-29T13:03:02.376Z,5.84
2018-12-29T13:05:30.792Z,5.78
2018-12-29T13:07:59.149Z,5.84
2018-12-29T13:10:27.526Z,5.86
2018-12-29T13:12:55.908Z,5.70
2018-12-29T13:15:43.663Z,5.72
2018-12-29T13:18:13.759Z,5.67
2018-12-29T13:20:42.133Z,5.85
2018-12-29T13:25:46.432Z,5.89
2018-12-29T13:28:15.119Z,5.93
2018-12-29T13:30:43.492Z,6.01
2018-12-29T13:33:11.951Z,6.23
2018-12-29T13:35:59.730Z,6.34
2018-12-29T13:38:29.832Z,6.29
2018-12-29T13:40:58.210Z,6.53
2018-12-29T13:43:26.589Z,6.77
2018-12-29T13:45:54.969Z,6.96
2018-12-29T13:48:23.381Z,7.17
2018-12-29T13:50:51.928Z,7.15
2018-12-29T13:53:20.328Z,7.20
2018-12-29T13:55:48.708Z,7.30
2018-12-29T13:58:17.080Z,7.33
2018-12-29T14:01:04.783Z,7.40
2018-12-29T14:03:33.163Z,7.39
2018-12-29T14:06:01.537Z,7.49
2018-12-29T14:08:29.920Z,7.50
2018-12-29T14:10:58.291Z,7.50
2018-12-29T14:13:46.116Z,7.46
2018-12-29T14:16:14.487Z,7.45
2018-12-29T14:18:42.865Z,7.41
2018-12-29T14:23:58.883Z,7.36
2018-12-29T14:26:27.257Z,7.38
2018-12-29T14:28:55.643Z,7.42
2018-12-29T14:31:24.020Z,7.37
2018-12-29T14:34:11.756Z,7.29
2018-12-29T14:36:40.124Z,7.32
2018-12-29T14:39:10.235Z,7.25
2018-12-29T14:41:38.622Z,7.22
2018-12-29T14:44:07.012Z,7.29
2018-12-29T14:46:35.392Z,7.34
2018-12-29T14:49:04.005Z,7.30
2018-12-29T14:51:32.467Z,7.32
2018-12-29T14:54:00.836Z,7.38
2018-12-29T14:56:29.219Z,7.37
2018-12-29T14:59:16.936Z,7.42
2018-12-29T15:01:45.320Z,7.44
2018-12-29T15:04:13.696Z,7.34
2018-12-29T15:06:42.076Z,7.31
2018-12-29T15:09:10.450Z,7.42
2018-12-29T15:11:38.835Z,7.37
2018-12-29T15:14:07.223Z,7.43
2018-12-29T15:16:35.891Z,7.25
2018-12-29T15:19:04.308Z,7.27
2018-12-29T15:21:34.485Z,7.17
2018-12-29T15:24:02.847Z,7.25
2018-12-29T15:26:50.572Z,7.16
2018-12-29T15:29:20.659Z,7.18
2018-12-29T15:31:49.039Z,7.15
2018-12-29T15:34:36.759Z,7.27
2018-12-29T15:37:05.169Z,7.14
2018-12-29T15:39:33.899Z,7.17
2018-12-29T15:42:02.275Z,7.08
2018-12-29T15:44:30.664Z,7.03
2018-12-29T15:46:59.223Z,7.17
2018-12-29T15:49:27.610Z,7.19
2018-12-29T15:51:56.000Z,7.15
2018-12-29T15:54:24.377Z,7.06
2018-12-29T15:56:52.783Z,7.11
2018-12-29T15:59:21.162Z,7.11
2018-12-29T16:01:49.534Z,7.08
2018-12-29T16:04:18.164Z,7.20
2018-12-29T16:06:46.549Z,7.09
2018-12-29T16:09:14.939Z,7.10
2018-12-29T16:11:43.577Z,7.15
2018-12-29T16:14:35.390Z,7.08
2018-12-29T16:17:02.018Z,7.07
2018-12-29T16:19:30.414Z,7.15
2018-12-29T16:21:58.781Z,7.12
2018-12-29T16:24:27.204Z,7.16
2018-12-29T16:26:55.571Z,7.26
2018-12-29T16:29:23.953Z,7.23
2018-12-29T16:31:52.328Z,7.24
2018-12-29T16:34:20.701Z,7.28
2018-12-29T16:36:49.086Z,7.26
2018-12-29T16:39:30.096Z,7.38
2018-12-29T16:41:58.480Z,7.28
2018-12-29T16:44:26.858Z,7.39
2018-12-29T16:46:55.239Z,7.40
2018-12-29T16:49:23.618Z,7.26
2018-12-29T16:51:52.027Z,6.97
2018-12-29T16:54:20.407Z,6.92
2018-12-29T16:56:48.784Z,6.77
2018-12-29T16:59:17.174Z,6.77
2018-12-29T17:01:45.798Z,6.78
2018-12-29T17:04:14.179Z,6.87
2018-12-29T17:06:42.570Z,6.77
2018-12-29T17:09:10.951Z,6.55
2018-12-29T17:11:39.359Z,6.52
2018-12-29T17:14:07.733Z,6.62
2018-12-29T17:16:37.833Z,6.40
2018-12-29T17:19:25.724Z,6.49
2018-12-29T17:21:54.131Z,6.08
2018-12-29T17:24:22.499Z,6.19
2018-12-29T17:26:50.863Z,6.17
2018-12-29T17:29:19.251Z,6.08
2018-12-29T17:31:47.622Z,6.11
2018-12-29T17:34:16.128Z,6.09
2018-12-29T17:37:03.835Z,5.95
2018-12-29T17:39:32.287Z,5.96
2018-12-29T17:42:00.679Z,5.74
2018-12-29T17:44:29.057Z,5.90
2018-12-29T17:46:57.433Z,5.82
2018-12-29T17:49:25.815Z,5.73
2018-12-29T17:51:56.235Z,5.85
2018-12-29T17:54:44.006Z,5.82
2018-12-29T17:57:12.395Z,5.72
2018-12-29T17:59:41.018Z,5.64
2018-12-29T18:02:09.410Z,5.72
2018-12-29T18:04:39.537Z,5.66
2018-12-29T18:07:08.220Z,5.62
2018-12-29T18:09:36.605Z,5.77
2018-12-29T18:12:04.982Z,5.79
2018-12-29T18:14:33.373Z,5.79
2018-12-29T18:17:01.757Z,5.87
2018-12-29T18:19:30.633Z,5.73
2018-12-29T18:22:00.476Z,5.93
2018-12-29T18:24:29.123Z,5.98
2018-12-29T18:26:57.510Z,5.83
2018-12-29T18:29:45.218Z,6.12
2018-12-29T18:32:13.618Z,6.07
2018-12-29T18:34:43.725Z,6.17
2018-12-29T18:37:12.385Z,6.35
2018-12-29T18:39:40.757Z,6.51
2018-12-29T18:42:09.145Z,6.45
2018-12-29T18:44:37.662Z,6.14
2018-12-29T18:47:06.051Z,6.26
2018-12-29T18:49:38.482Z,6.56
2018-12-29T18:52:04.633Z,6.62
2018-12-29T18:54:33.003Z,6.46
2018-12-29T18:57:01.379Z,6.71
2018-12-29T18:59:29.760Z,6.84
2018-12-29T19:01:59.858Z,6.60
2018-12-29T19:04:28.237Z,6.64
2018-12-29T19:06:56.617Z,6.81
2018-12-29T19:09:25.006Z,6.78
2018-12-29T19:12:12.710Z,6.85
2018-12-29T19:14:41.092Z,6.85
2018-12-29T19:17:09.469Z,6.78
2018-12-29T19:19:46.224Z,6.76
2018-12-29T19:22:09.949Z,6.91
2018-12-29T19:24:38.334Z,7.10
2018-12-29T19:27:06.701Z,7.48
2018-12-29T19:29:35.139Z,7.69
2018-12-29T19:32:05.237Z,7.74
2018-12-29T19:34:54.676Z,7.91
2018-12-29T19:37:23.279Z,7.99
2018-12-29T19:39:51.653Z,8.06
2018-12-29T19:42:20.023Z,8.15
2018-12-29T19:44:48.399Z,8.14
2018-12-29T19:47:16.777Z,8.24
2018-12-29T19:49:45.161Z,8.29
2018-12-29T19:52:13.536Z,8.35
2018-12-29T19:54:41.979Z,8.31
2018-12-29T19:57:12.083Z,8.40
2018-12-29T19:59:42.174Z,8.41
2018-12-29T20:02:29.999Z,8.47
2018-12-29T20:05:00.182Z,8.54
2018-12-29T20:07:28.577Z,8.59
2018-12-29T20:09:56.958Z,8.52
2018-12-29T20:12:25.332Z,8.52
2018-12-29T20:14:53.708Z,8.61
2018-12-29T20:17:22.090Z,8.65
2018-12-29T20:19:52.176Z,8.66
2018-12-29T20:22:20.567Z,8.64
2018-12-29T20:24:48.954Z,8.73
2018-12-29T20:27:17.375Z,8.69
2018-12-29T20:29:45.708Z,8.76
2018-12-29T20:32:14.384Z,8.81
2018-12-29T20:34:42.755Z,8.63
2018-12-29T20:37:11.145Z,8.74
2018-12-29T20:39:39.529Z,8.87
2018-12-29T20:42:07.902Z,8.81
2018-12-29T20:44:36.286Z,8.96
2018-12-29T20:47:04.750Z,8.91
2018-12-29T20:49:33.138Z,8.95
2018-12-29T20:52:01.512Z,8.96
2018-12-29T20:54:29.898Z,8.90
2018-12-29T20:56:58.271Z,8.97
2018-12-29T20:59:28.371Z,8.98
2018-12-29T21:01:56.749Z,8.92
2018-12-29T21:04:25.126Z,9.01
2018-12-29T21:06:53.493Z,9.01
2018-12-29T21:09:21.873Z,9.14
2018-12-29T21:11:50.544Z,9.09
2018-12-29T21:14:20.668Z,9.18
2018-12-29T21:16:49.039Z,9.17
2018-12-29T21:19:17.435Z,9.15
2018-12-29T21:21:45.811Z,9.22
2018-12-29T21:24:14.194Z,9.30
2018-12-29T21:26:42.563Z,9.23
2018-12-29T21:29:10.946Z,9.26
2018-12-29T21:31:39.316Z,9.32
2018-12-29T21:34:07.692Z,9.32
2018-12-29T21:36:36.107Z,9.31
2018-12-29T21:39:44.373Z,9.27
2018-12-29T21:42:12.747Z,9.32
2018-12-29T21:44:41.161Z,9.31
2018-12-29T21:47:09.530Z,9.38
2018-12-29T21:49:37.913Z,9.33
2018-12-29T21:52:06.284Z,9.44
2018-12-29T21:54:34.713Z,9.31
2018-12-29T21:57:03.093Z,9.40
2018-12-29T21:59:31.469Z,9.44
2018-12-29T22:02:00.028Z,9.45
2018-12-29T22:04:28.404Z,9.48
2018-12-29T22:06:56.792Z,9.47
2018-12-29T22:09:25.166Z,9.48
2018-12-29T22:11:53.555Z,9.53
2018-12-29T22:14:21.921Z,9.55
2018-12-29T22:16:50.299Z,9.53
2018-12-29T22:19:18.667Z,9.56
2018-12-29T22:21:47.057Z,9.66
2018-12-29T22:24:16.085Z,9.62
2018-12-29T22:26:45.552Z,9.59
2018-12-29T22:29:15.641Z,9.55
2018-12-29T22:31:44.011Z,9.61
2018-12-29T22:34:12.715Z,9.58
2018-12-29T22:36:41.084Z,9.61
2018-12-29T22:39:09.472Z,9.68
2018-12-29T22:41:37.840Z,9.61
2018-12-29T22:44:06.406Z,9.63
2018-12-29T22:46:34.852Z,9.52
2018-12-29T22:49:03.483Z,9.54
2018-12-29T22:51:31.871Z,9.66
2018-12-29T22:54:00.248Z,9.67
2018-12-29T22:56:29.012Z,9.69
2018-12-29T22:58:57.424Z,9.66
2018-12-29T23:01:25.795Z,9.58
2018-12-29T23:03:54.172Z,9.53
2018-12-29T23:06:22.544Z,9.58
2018-12-29T23:08:51.187Z,9.57
2018-12-29T23:11:19.557Z,9.58
2018-12-29T23:13:47.934Z,9.55
2018-12-29T23:16:16.310Z,9.48
2018-12-29T23:18:45.081Z,9.47
2018-12-29T23:21:13.464Z,9.44
2018-12-29T23:23:41.835Z,9.34
2018-12-29T23:26:11.143Z,9.41
2018-12-29T23:28:39.519Z,9.50
2018-12-29T23:31:08.301Z,9.44
2018-12-29T23:33:37.689Z,9.48
2018-12-29T23:36:06.078Z,9.45
2018-12-29T23:38:35.453Z,9.33
2018-12-29T23:41:03.835Z,9.37
2018-12-29T23:43:33.161Z,9.36
2018-12-29T23:46:01.539Z,9.32
2018-12-29T23:48:29.914Z,9.38
2018-12-29T23:51:05.294Z,9.31
2018-12-29T23:53:28.834Z,9.33
2018-12-29T23:55:57.596Z,9.26
2018-12-29T23:58:25.975Z,9.25
